createdAt,value
2019-03-09T00:00:35.616Z,88.89
2019-03-09T00:01:35.607Z,88.60
2019-03-09T00:02:35.594Z,88.98
2019-03-09T00:03:35.598Z,88.70
2019-03-09T00:04:35.578Z,88.60
2019-03-09T00:05:35.570Z,88.75
2019-03-09T00:06:35.558Z,89.07
2019-03-09T00:07:35.554Z,88.60
2019-03-09T00:08:35.536Z,88.79
2019-03-09T00:09:35.535Z,88.51
2019-03-09T00:10:35.543Z,89.22
2019-03-09T00:11:35.527Z,89.17
2019-03-09T00:12:35.519Z,88.70
2019-03-09T00:13:35.512Z,88.89
2019-03-09T00:14:35.495Z,88.70
2019-03-09T00:15:35.507Z,88.60
2019-03-09T00:16:35.508Z,88.79
2019-03-09T00:17:35.484Z,88.51
2019-03-09T00:18:35.465Z,88.98
2019-03-09T00:19:35.454Z,89.07
2019-03-09T00:20:35.444Z,89.26
2019-03-09T00:21:35.435Z,88.98
2019-03-09T00:22:35.430Z,89.36
2019-03-09T00:23:35.421Z,88.89
2019-03-09T00:24:35.425Z,88.79
2019-03-09T00:25:35.424Z,88.84
2019-03-09T00:26:35.402Z,89.22
2019-03-09T00:27:35.395Z,88.98
2019-03-09T00:28:35.378Z,88.31
2019-03-09T00:29:35.385Z,88.46
2019-03-09T00:30:35.364Z,88.93
2019-03-09T00:31:35.353Z,88.93
2019-03-09T00:32:35.352Z,89.17
2019-03-09T00:33:35.353Z,88.98
2019-03-09T00:34:35.345Z,89.17
2019-03-09T00:35:35.333Z,89.17
2019-03-09T00:36:35.314Z,89.17
2019-03-09T00:37:35.319Z,88.65
2019-03-09T00:38:35.305Z,88.56
2019-03-09T00:39:35.300Z,88.51
2019-03-09T00:40:35.287Z,88.79
2019-03-09T00:41:35.274Z,88.51
2019-03-09T00:42:35.264Z,88.89
2019-03-09T00:43:35.262Z,88.46
2019-03-09T00:44:35.274Z,88.89
2019-03-09T00:45:35.256Z,88.98
2019-03-09T00:46:35.237Z,89.07
2019-03-09T00:47:35.252Z,88.89
2019-03-09T00:48:35.242Z,88.70
2019-03-09T00:49:35.229Z,88.79
2019-03-09T00:50:35.212Z,88.22
2019-03-09T00:51:35.198Z,88.12
2019-03-09T00:52:35.198Z,88.79
2019-03-09T00:53:35.188Z,88.89
2019-03-09T00:54:35.180Z,87.55
2019-03-09T00:55:35.195Z,87.55
2019-03-09T00:56:35.183Z,88.12
2019-03-09T00:57:35.157Z,87.93
2019-03-09T00:58:35.155Z,88.12
2019-03-09T00:59:35.139Z,88.03
2019-03-09T01:00:35.136Z,88.12
2019-03-09T01:01:35.120Z,88.79
2019-03-09T01:02:35.102Z,88.51
2019-03-09T01:03:35.103Z,89.07
2019-03-09T01:04:35.102Z,88.89
2019-03-09T01:05:35.088Z,89.55
2019-03-09T01:06:35.076Z,89.17
2019-03-09T01:07:35.070Z,89.46
2019-03-09T01:08:35.063Z,89.36
2019-03-09T01:09:35.070Z,89.17
2019-03-09T01:10:35.051Z,88.79
2019-03-09T01:11:35.045Z,88.79
2019-03-09T01:12:35.033Z,89.75
2019-03-09T01:13:35.037Z,89.65
2019-03-09T01:14:35.018Z,89.94
2019-03-09T01:15:35.014Z,90.70
2019-03-09T01:16:35.008Z,90.60
2019-03-09T01:17:35.000Z,90.41
2019-03-09T01:18:34.984Z,89.75
2019-03-09T01:19:34.989Z,89.65
2019-03-09T01:20:34.984Z,88.98
2019-03-09T01:21:34.969Z,89.55
2019-03-09T01:22:34.957Z,88.98
2019-03-09T01:23:34.940Z,89.26
2019-03-09T01:24:34.942Z,89.75
2019-03-09T01:25:34.931Z,90.22
2019-03-09T01:26:34.919Z,90.89
2019-03-09T01:27:34.913Z,92.69
2019-03-09T01:28:34.904Z,93.17
2019-03-09T01:29:34.903Z,94.03
2019-03-09T01:30:34.896Z,94.98
2019-03-09T01:31:35.581Z,95.75
2019-03-09T01:32:34.890Z,95.94
2019-03-09T01:33:34.863Z,96.80
2019-03-09T01:34:34.851Z,97.75
2019-03-09T01:35:34.851Z,97.84
2019-03-09T01:36:34.848Z,98.60
2019-03-09T01:37:34.840Z,98.89
2019-03-09T01:38:34.832Z,99.94
2019-03-09T01:39:34.820Z,99.99
2019-03-09T01:40:34.808Z,99.99
2019-03-09T01:41:34.811Z,99.99
2019-03-09T01:42:34.792Z,99.99
2019-03-09T01:43:34.791Z,99.99
2019-03-09T01:44:34.784Z,99.99
2019-03-09T01:45:34.775Z,99.99
2019-03-09T01:46:34.758Z,99.99
2019-03-09T01:47:34.768Z,99.99
2019-03-09T01:48:34.768Z,99.99
2019-03-09T01:49:34.744Z,99.99
2019-03-09T01:50:34.751Z,99.99
2019-03-09T01:51:34.734Z,99.99
2019-03-09T01:52:34.718Z,99.99
2019-03-09T01:53:36.963Z,99.99
2019-03-09T01:54:34.692Z,99.99
2019-03-09T01:55:34.694Z,99.99
2019-03-09T01:56:34.704Z,99.99
2019-03-09T01:57:35.600Z,99.99
2019-03-09T01:58:34.661Z,99.99
2019-03-09T01:59:34.667Z,99.99
2019-03-09T02:00:34.651Z,99.99
2019-03-09T02:01:34.647Z,99.99
2019-03-09T02:02:34.649Z,99.99
2019-03-09T02:03:34.636Z,99.99
2019-03-09T02:04:34.621Z,99.99
2019-03-09T02:05:34.611Z,99.99
2019-03-09T02:06:34.602Z,99.99
2019-03-09T02:07:34.600Z,99.99
2019-03-09T02:08:34.605Z,99.99
2019-03-09T02:09:34.588Z,99.99
2019-03-09T02:10:34.579Z,99.99
2019-03-09T02:11:34.577Z,99.99
2019-03-09T02:12:34.561Z,99.99
2019-03-09T02:13:34.551Z,99.99
2019-03-09T02:14:34.542Z,99.99
2019-03-09T02:15:34.536Z,99.99
2019-03-09T02:16:34.529Z,99.99
2019-03-09T02:17:34.515Z,99.99
2019-03-09T02:18:34.503Z,99.99
2019-03-09T02:19:34.502Z,99.99
2019-03-09T02:20:34.495Z,99.99
2019-03-09T02:21:34.498Z,99.99
2019-03-09T02:22:34.474Z,99.99
2019-03-09T02:23:34.482Z,99.99
2019-03-09T02:24:34.470Z,99.99
2019-03-09T02:25:34.464Z,99.99
2019-03-09T02:26:34.443Z,99.99
2019-03-09T02:27:34.441Z,99.99
2019-03-09T02:28:34.431Z,99.99
2019-03-09T02:29:34.422Z,99.99
2019-03-09T02:30:34.411Z,99.99
2019-03-09T02:31:34.405Z,99.99
2019-03-09T02:32:34.404Z,99.99
2019-03-09T02:33:34.456Z,99.99
2019-03-09T02:34:34.394Z,99.99
2019-03-09T02:35:34.366Z,99.99
2019-03-09T02:36:34.363Z,99.99
2019-03-09T02:37:34.358Z,99.99
2019-03-09T02:38:34.342Z,99.99
2019-03-09T02:39:34.338Z,99.99
2019-03-09T02:40:34.338Z,99.99
2019-03-09T02:41:34.323Z,99.99
2019-03-09T02:42:34.322Z,99.99
2019-03-09T02:43:34.309Z,99.99
2019-03-09T02:44:34.297Z,99.99
2019-03-09T02:45:34.305Z,99.99
2019-03-09T02:46:34.295Z,99.99
2019-03-09T02:47:34.273Z,99.99
2019-03-09T02:48:34.282Z,99.99
2019-03-09T02:49:34.261Z,99.99
2019-03-09T02:50:34.245Z,99.99
2019-03-09T02:51:34.243Z,99.99
2019-03-09T02:52:34.234Z,99.99
2019-03-09T02:53:34.245Z,99.99
2019-03-09T02:54:34.219Z,99.99
2019-03-09T02:55:34.207Z,99.99
2019-03-09T02:56:34.201Z,99.99
2019-03-09T02:57:34.199Z,99.99
2019-03-09T02:58:34.184Z,99.99
2019-03-09T02:59:34.168Z,99.99
2019-03-09T03:00:34.170Z,99.99
2019-03-09T03:01:34.163Z,99.99
2019-03-09T03:02:34.153Z,99.99
2019-03-09T03:03:34.142Z,99.99
2019-03-09T03:04:34.134Z,99.99
2019-03-09T03:05:34.142Z,99.99
2019-03-09T03:06:34.133Z,99.99
2019-03-09T03:07:34.113Z,99.99
2019-03-09T03:08:34.122Z,99.99
2019-03-09T03:09:34.096Z,99.99
2019-03-09T03:10:34.083Z,99.99
2019-03-09T03:11:34.075Z,99.99
2019-03-09T03:12:34.070Z,99.99
2019-03-09T03:13:34.064Z,99.99
2019-03-09T03:14:34.052Z,99.99
2019-03-09T03:15:34.052Z,99.99
2019-03-09T03:16:34.033Z,99.99
2019-03-09T03:17:34.033Z,99.99
2019-03-09T03:18:34.022Z,99.99
2019-03-09T03:19:34.024Z,99.99
2019-03-09T03:20:34.002Z,99.99
2019-03-09T03:21:33.982Z,99.99
2019-03-09T03:22:33.982Z,99.99
2019-03-09T03:23:33.974Z,99.99
2019-03-09T03:24:33.969Z,99.99
2019-03-09T03:25:33.980Z,99.99
2019-03-09T03:26:33.953Z,99.99
2019-03-09T03:27:33.950Z,99.99
2019-03-09T03:28:33.937Z,99.99
2019-03-09T03:29:33.922Z,99.99
2019-03-09T03:30:33.911Z,99.99
2019-03-09T03:31:33.903Z,99.99
2019-03-09T03:32:33.905Z,99.99
2019-03-09T03:33:33.896Z,99.99
2019-03-09T03:34:33.916Z,99.99
2019-03-09T03:35:33.899Z,99.99
2019-03-09T03:36:33.869Z,99.99
2019-03-09T03:37:33.867Z,99.99
2019-03-09T03:38:33.854Z,99.99
2019-03-09T03:39:33.853Z,99.99
2019-03-09T03:40:33.835Z,99.99
2019-03-09T03:41:33.824Z,99.99
2019-03-09T03:42:33.816Z,99.99
2019-03-09T03:43:33.815Z,99.99
2019-03-09T03:44:33.804Z,99.99
2019-03-09T03:45:33.792Z,99.99
2019-03-09T03:46:33.786Z,99.99
2019-03-09T03:47:33.786Z,99.99
2019-03-09T03:48:33.765Z,99.99
2019-03-09T03:49:33.760Z,99.99
2019-03-09T03:50:33.756Z,99.99
2019-03-09T03:51:33.749Z,99.99
2019-03-09T03:52:33.737Z,99.99
2019-03-09T03:53:33.725Z,99.99
2019-03-09T03:54:33.719Z,99.99
2019-03-09T03:55:33.707Z,99.99
2019-03-09T03:56:33.703Z,99.99
2019-03-09T03:57:33.716Z,99.99
2019-03-09T03:58:33.689Z,99.99
2019-03-09T03:59:33.677Z,99.99
2019-03-09T04:00:33.674Z,99.99
2019-03-09T04:01:33.660Z,99.99
2019-03-09T04:02:33.659Z,99.99
2019-03-09T04:03:33.645Z,99.99
2019-03-09T04:04:33.649Z,99.99
2019-03-09T04:05:33.633Z,99.99
2019-03-09T04:06:33.621Z,99.99
2019-03-09T04:07:33.611Z,99.99
2019-03-09T04:08:33.608Z,99.99
2019-03-09T04:09:33.624Z,99.99
2019-03-09T04:10:33.591Z,99.99
2019-03-09T04:11:33.583Z,99.99
2019-03-09T04:12:33.584Z,99.99
2019-03-09T04:13:33.563Z,99.99
2019-03-09T04:14:33.568Z,99.99
2019-03-09T04:15:33.565Z,99.99
2019-03-09T04:16:33.544Z,99.99
2019-03-09T04:17:33.540Z,99.99
2019-03-09T04:18:33.530Z,99.99
2019-03-09T04:19:33.522Z,99.99
2019-03-09T04:20:33.527Z,99.99
2019-03-09T04:21:33.499Z,99.99
2019-03-09T04:22:33.500Z,99.99
2019-03-09T04:23:33.482Z,99.99
2019-03-09T04:24:33.479Z,99.99
2019-03-09T04:25:33.467Z,99.99
2019-03-09T04:26:33.449Z,99.99
2019-03-09T04:27:33.448Z,99.99
2019-03-09T04:28:33.441Z,99.99
2019-03-09T04:29:33.447Z,99.99
2019-03-09T04:30:33.438Z,99.99
2019-03-09T04:31:33.420Z,99.99
2019-03-09T04:32:33.414Z,99.99
2019-03-09T04:33:33.401Z,99.99
2019-03-09T04:34:33.386Z,99.99
2019-03-09T04:35:33.383Z,99.99
2019-03-09T04:36:33.382Z,99.99
2019-03-09T04:37:33.375Z,99.99
2019-03-09T04:38:33.353Z,99.99
2019-03-09T04:39:33.349Z,99.99
2019-03-09T04:40:33.349Z,99.99
2019-03-09T04:41:33.339Z,99.99
2019-03-09T04:42:33.327Z,99.99
2019-03-09T04:43:33.328Z,99.99
2019-03-09T04:44:33.313Z,99.99
2019-03-09T04:45:33.308Z,99.99
2019-03-09T04:46:33.291Z,99.99
2019-03-09T04:47:33.289Z,99.99
2019-03-09T04:48:33.291Z,99.99
2019-03-09T04:49:33.278Z,99.99
2019-03-09T04:50:33.275Z,99.99
2019-03-09T04:51:33.261Z,99.99
2019-03-09T04:52:33.260Z,99.99
2019-03-09T04:53:33.243Z,99.99
2019-03-09T04:54:33.232Z,99.99
2019-03-09T04:55:33.231Z,99.99
2019-03-09T04:56:33.217Z,99.99
2019-03-09T04:57:33.225Z,99.99
2019-03-09T04:58:33.205Z,99.99
2019-03-09T04:59:33.194Z,99.99
2019-03-09T05:00:33.201Z,99.99
2019-03-09T05:01:33.191Z,99.99
2019-03-09T05:02:33.175Z,99.99
2019-03-09T05:03:33.178Z,99.99
2019-03-09T05:04:33.151Z,99.99
2019-03-09T05:05:33.155Z,99.99
2019-03-09T05:06:33.139Z,99.99
2019-03-09T05:07:33.135Z,99.99
2019-03-09T05:08:33.129Z,99.99
2019-03-09T05:09:33.127Z,99.99
2019-03-09T05:10:33.111Z,99.99
2019-03-09T05:11:33.117Z,99.99
2019-03-09T05:12:33.094Z,99.99
2019-03-09T05:13:33.087Z,99.99
2019-03-09T05:14:33.082Z,99.99
2019-03-09T05:15:33.081Z,99.99
2019-03-09T05:16:33.069Z,99.99
2019-03-09T05:17:33.053Z,99.99
2019-03-09T05:18:33.046Z,99.99
2019-03-09T05:19:33.038Z,99.99
2019-03-09T05:20:33.037Z,99.99
2019-03-09T05:21:33.037Z,99.99
2019-03-09T05:22:33.011Z,99.99
2019-03-09T05:23:33.020Z,99.99
2019-03-09T05:24:32.993Z,99.99
2019-03-09T05:25:32.998Z,99.99
2019-03-09T05:26:33.703Z,99.99
2019-03-09T05:27:32.980Z,99.99
2019-03-09T05:28:32.981Z,99.99
2019-03-09T05:29:32.960Z,99.99
2019-03-09T05:30:32.950Z,99.99
2019-03-09T05:31:32.945Z,99.99
2019-03-09T05:32:32.937Z,99.99
2019-03-09T05:33:32.942Z,99.99
2019-03-09T05:34:32.920Z,99.99
2019-03-09T05:35:32.923Z,99.99
2019-03-09T05:36:32.909Z,99.99
2019-03-09T05:37:42.656Z,99.99
2019-03-09T05:38:32.894Z,99.99
2019-03-09T05:39:32.879Z,99.99
2019-03-09T05:40:32.889Z,99.99
2019-03-09T05:41:32.873Z,99.99
2019-03-09T05:42:32.860Z,99.99
2019-03-09T05:43:32.898Z,99.99
2019-03-09T05:44:32.852Z,99.99
2019-03-09T05:45:32.842Z,99.99
2019-03-09T05:46:32.846Z,99.99
2019-03-09T05:47:32.828Z,99.99
2019-03-09T05:48:32.824Z,99.99
2019-03-09T05:49:32.806Z,99.99
2019-03-09T05:50:32.801Z,99.99
2019-03-09T05:51:32.794Z,99.99
2019-03-09T05:52:32.791Z,99.99
2019-03-09T05:53:32.786Z,99.99
2019-03-09T05:54:32.781Z,99.99
2019-03-09T05:55:32.769Z,99.99
2019-03-09T05:56:32.757Z,99.99
2019-03-09T05:57:32.769Z,99.99
2019-03-09T05:58:32.739Z,99.99
2019-03-09T05:59:32.738Z,99.99
2019-03-09T06:00:32.718Z,99.99
2019-03-09T06:01:32.716Z,99.99
2019-03-09T06:02:32.709Z,99.99
2019-03-09T06:03:32.713Z,99.99
2019-03-09T06:04:32.700Z,99.99
2019-03-09T06:05:32.693Z,99.99
2019-03-09T06:06:32.684Z,99.99
2019-03-09T06:07:32.677Z,99.99
2019-03-09T06:08:32.658Z,99.99
2019-03-09T06:09:32.656Z,99.99
2019-03-09T06:10:32.651Z,99.99
2019-03-09T06:11:33.296Z,99.99
2019-03-09T06:12:32.640Z,99.99
2019-03-09T06:13:32.628Z,99.99
2019-03-09T06:14:32.632Z,99.99
2019-03-09T06:15:32.626Z,99.99
2019-03-09T06:16:32.620Z,99.99
2019-03-09T06:17:32.604Z,99.99
2019-03-09T06:18:32.592Z,99.99
2019-03-09T06:19:32.586Z,99.99
2019-03-09T06:20:32.587Z,99.99
2019-03-09T06:21:32.568Z,99.99
2019-03-09T06:22:32.556Z,99.99
2019-03-09T06:23:32.559Z,99.99
2019-03-09T06:24:32.560Z,99.99
2019-03-09T06:25:32.540Z,99.99
2019-03-09T06:26:32.544Z,99.99
2019-03-09T06:27:32.524Z,99.99
2019-03-09T06:28:32.525Z,99.99
2019-03-09T06:29:32.502Z,99.99
2019-03-09T06:30:32.508Z,99.99
2019-03-09T06:31:32.503Z,99.99
2019-03-09T06:32:32.490Z,99.99
2019-03-09T06:33:32.502Z,99.99
2019-03-09T06:34:32.469Z,99.99
2019-03-09T06:35:32.460Z,99.99
2019-03-09T06:36:32.459Z,99.99
2019-03-09T06:37:32.461Z,99.99
2019-03-09T06:38:32.451Z,99.99
2019-03-09T06:39:32.438Z,99.99
2019-03-09T06:40:32.417Z,99.99
2019-03-09T06:41:32.425Z,99.99
2019-03-09T06:42:32.422Z,99.99
2019-03-09T06:43:32.401Z,99.99
2019-03-09T06:44:32.393Z,99.99
2019-03-09T06:45:32.385Z,99.99
2019-03-09T06:46:32.383Z,99.99
2019-03-09T06:47:32.382Z,99.99
2019-03-09T06:48:32.366Z,99.99
2019-03-09T06:49:32.373Z,99.99
2019-03-09T06:50:32.357Z,99.99
2019-03-09T06:51:32.349Z,99.99
2019-03-09T06:52:32.326Z,99.99
2019-03-09T06:53:32.331Z,99.99
2019-03-09T06:54:32.321Z,99.99
2019-03-09T06:55:32.329Z,99.99
2019-03-09T06:56:32.322Z,99.99
2019-03-09T06:57:32.312Z,99.99
2019-03-09T06:58:32.288Z,99.99
2019-03-09T06:59:32.289Z,99.99
2019-03-09T07:00:32.279Z,99.99
2019-03-09T07:01:32.275Z,99.99
2019-03-09T07:02:32.283Z,99.99
2019-03-09T07:03:32.266Z,99.99
2019-03-09T07:04:32.253Z,99.99
2019-03-09T07:05:32.255Z,99.99
2019-03-09T07:06:32.237Z,99.99
2019-03-09T07:07:32.230Z,99.99
2019-03-09T07:08:32.228Z,99.99
2019-03-09T07:09:32.221Z,99.99
2019-03-09T07:10:32.213Z,99.99
2019-03-09T07:11:32.206Z,99.99
2019-03-09T07:12:32.216Z,99.99
2019-03-09T07:13:32.188Z,99.71
2019-03-09T07:14:32.181Z,99.32
2019-03-09T07:15:32.179Z,99.23
2019-03-09T07:16:32.174Z,99.61
2019-03-09T07:17:32.189Z,99.04
2019-03-09T07:18:32.175Z,99.23
2019-03-09T07:19:32.162Z,99.23
2019-03-09T07:20:32.144Z,99.90
2019-03-09T07:21:32.145Z,99.61
2019-03-09T07:22:32.129Z,99.61
2019-03-09T07:23:32.132Z,99.80
2019-03-09T07:24:32.111Z,99.42
2019-03-09T07:25:32.115Z,99.99
2019-03-09T07:26:32.116Z,99.71
2019-03-09T07:27:32.120Z,99.42
2019-03-09T07:28:32.105Z,99.61
2019-03-09T07:29:32.089Z,99.71
2019-03-09T07:30:32.085Z,99.32
2019-03-09T07:31:32.074Z,99.61
2019-03-09T07:32:32.065Z,99.42
2019-03-09T07:33:32.067Z,99.42
2019-03-09T07:34:32.049Z,99.61
2019-03-09T07:35:32.075Z,99.80
2019-03-09T07:36:32.045Z,99.32
2019-03-09T07:37:32.037Z,99.13
2019-03-09T07:38:32.028Z,98.94
2019-03-09T07:39:32.030Z,99.04
2019-03-09T07:40:32.052Z,99.42
2019-03-09T07:41:32.016Z,99.04
2019-03-09T07:42:32.016Z,99.32
2019-03-09T07:43:32.020Z,98.85
2019-03-09T07:44:31.996Z,98.85
2019-03-09T07:45:31.985Z,98.47
2019-03-09T07:46:32.006Z,98.85
2019-03-09T07:47:31.982Z,99.52
2019-03-09T07:48:32.543Z,99.61
2019-03-09T07:49:31.956Z,99.23
2019-03-09T07:50:31.967Z,99.61
2019-03-09T07:51:31.949Z,99.42
2019-03-09T07:52:31.946Z,99.42
2019-03-09T07:53:31.940Z,99.52
2019-03-09T07:54:31.944Z,99.23
2019-03-09T07:55:31.926Z,98.27
2019-03-09T07:56:31.913Z,98.61
2019-03-09T07:57:31.904Z,98.61
2019-03-09T07:58:31.894Z,98.13
2019-03-09T07:59:31.893Z,97.75
2019-03-09T08:00:31.896Z,97.47
2019-03-09T08:01:31.890Z,97.56
2019-03-09T08:02:31.883Z,97.94
2019-03-09T08:03:31.883Z,97.37
2019-03-09T08:04:31.873Z,97.37
2019-03-09T08:05:31.853Z,97.56
2019-03-09T08:06:31.853Z,97.75
2019-03-09T08:07:31.867Z,97.75
2019-03-09T08:08:31.845Z,97.56
2019-03-09T08:09:31.836Z,97.56
2019-03-09T08:10:31.823Z,96.98
2019-03-09T08:11:31.818Z,96.32
2019-03-09T08:12:31.816Z,96.98
2019-03-09T08:13:31.812Z,96.80
2019-03-09T08:14:31.804Z,96.70
2019-03-09T08:15:31.816Z,96.80
2019-03-09T08:16:35.951Z,96.89
2019-03-09T08:17:32.758Z,97.85
2019-03-09T08:18:31.797Z,98.80
2019-03-09T08:19:31.810Z,98.03
2019-03-09T08:20:31.811Z,98.23
2019-03-09T08:21:31.783Z,97.75
2019-03-09T08:22:31.755Z,98.32
2019-03-09T08:23:31.752Z,97.47
2019-03-09T08:24:31.750Z,97.80
2019-03-09T08:25:31.734Z,96.89
2019-03-09T08:26:31.732Z,96.70
2019-03-09T08:27:31.731Z,96.56
2019-03-09T08:28:31.712Z,95.89
2019-03-09T08:29:31.722Z,95.98
2019-03-09T08:30:31.707Z,96.75
2019-03-09T08:31:31.704Z,96.75
2019-03-09T08:32:31.713Z,96.75
2019-03-09T08:33:31.692Z,96.17
2019-03-09T08:34:31.689Z,95.32
2019-03-09T08:35:31.679Z,94.93
2019-03-09T08:36:31.676Z,94.36
2019-03-09T08:37:31.661Z,93.70
2019-03-09T08:38:31.660Z,93.79
2019-03-09T08:39:31.653Z,93.21
2019-03-09T08:40:31.658Z,92.74
2019-03-09T08:41:31.639Z,92.64
2019-03-09T08:42:31.642Z,92.36
2019-03-09T08:43:31.624Z,91.59
2019-03-09T08:44:31.638Z,90.45
2019-03-09T08:45:31.630Z,91.11
2019-03-09T08:46:31.646Z,91.21
2019-03-09T08:47:31.607Z,90.64
2019-03-09T08:48:31.596Z,90.83
2019-03-09T08:49:31.597Z,90.83
2019-03-09T08:50:31.595Z,91.02
2019-03-09T08:51:31.594Z,91.02
2019-03-09T08:52:31.580Z,91.02
2019-03-09T08:53:31.570Z,90.64
2019-03-09T08:54:31.558Z,90.64
2019-03-09T08:55:31.561Z,90.64
2019-03-09T08:56:33.437Z,90.35
2019-03-09T08:57:31.563Z,89.25
2019-03-09T08:58:31.550Z,89.97
2019-03-09T08:59:31.569Z,89.01
2019-03-09T09:00:31.541Z,89.01
2019-03-09T09:01:31.524Z,89.25
2019-03-09T09:02:31.521Z,90.01
2019-03-09T09:03:31.514Z,89.01
2019-03-09T09:04:31.507Z,88.73
2019-03-09T09:05:31.539Z,87.91
2019-03-09T09:06:31.497Z,88.87
2019-03-09T09:07:31.496Z,87.96
2019-03-09T09:08:31.586Z,88.34
2019-03-09T09:09:32.596Z,88.39
2019-03-09T09:10:33.857Z,88.29
2019-03-09T09:11:43.006Z,87.24
2019-03-09T09:12:33.809Z,86.96
2019-03-09T09:13:31.475Z,86.86
2019-03-09T09:14:35.913Z,86.76
2019-03-09T09:15:31.458Z,87.05
2019-03-09T09:16:44.308Z,87.05
2019-03-09T09:17:31.464Z,86.57
2019-03-09T09:18:32.057Z,86.96
2019-03-09T09:19:38.004Z,86.67
2019-03-09T09:20:37.433Z,85.90
2019-03-09T09:21:36.572Z,85.14
2019-03-09T09:22:43.380Z,85.33
2019-03-09T09:23:44.829Z,85.14
2019-03-09T09:24:44.720Z,85.05
2019-03-09T09:25:38.302Z,84.76
2019-03-09T09:26:31.392Z,85.33
2019-03-09T09:27:31.385Z,84.95
2019-03-09T09:28:31.388Z,83.61
2019-03-09T09:29:35.073Z,84.76
2019-03-09T09:30:39.113Z,84.76
2019-03-09T09:31:38.376Z,84.09
2019-03-09T09:32:32.487Z,84.76
2019-03-09T09:33:31.361Z,84.95
2019-03-09T09:34:32.304Z,84.56
2019-03-09T09:35:39.044Z,84.76
2019-03-09T09:36:38.992Z,84.52
2019-03-09T09:37:42.178Z,83.75
2019-03-09T09:38:41.590Z,83.65
2019-03-09T09:39:32.175Z,83.27
2019-03-09T09:40:31.331Z,82.98
2019-03-09T09:41:35.589Z,82.60
2019-03-09T09:42:36.339Z,82.31
2019-03-09T09:43:37.060Z,81.74
2019-03-09T09:44:45.548Z,82.31
2019-03-09T09:45:31.866Z,81.84
2019-03-09T09:46:39.039Z,82.12
2019-03-09T09:48:06.821Z,82.51
2019-03-09T09:48:38.143Z,82.60
2019-03-09T09:49:31.282Z,82.98
2019-03-09T09:50:31.289Z,82.70
2019-03-09T09:51:31.268Z,82.41
2019-03-09T09:52:31.345Z,82.60
2019-03-09T09:53:32.763Z,82.31
2019-03-09T09:54:38.769Z,81.74
2019-03-09T09:55:36.832Z,81.74
2019-03-09T09:56:31.257Z,81.84
2019-03-09T09:57:39.930Z,81.74
2019-03-09T09:58:34.247Z,81.16
2019-03-09T09:59:37.811Z,80.79
2019-03-09T10:00:45.757Z,81.65
2019-03-09T10:01:35.272Z,80.88
2019-03-09T10:02:33.601Z,80.79
2019-03-09T10:03:47.033Z,81.55
2019-03-09T10:04:37.948Z,80.59
2019-03-09T10:05:31.205Z,80.02
2019-03-09T10:06:31.211Z,80.88
2019-03-09T10:07:31.199Z,80.79
2019-03-09T10:08:31.195Z,80.35
2019-03-09T10:09:31.193Z,80.82
2019-03-09T10:10:31.278Z,81.02
2019-03-09T10:11:31.181Z,80.54
2019-03-09T10:12:31.173Z,80.92
2019-03-09T10:13:31.183Z,80.44
2019-03-09T10:14:31.820Z,80.35
2019-03-09T10:15:31.159Z,80.35
2019-03-09T10:16:31.175Z,80.44
2019-03-09T10:17:31.161Z,80.82
2019-03-09T10:18:31.151Z,82.74
2019-03-09T10:19:31.142Z,80.82
2019-03-09T10:20:31.143Z,80.35
2019-03-09T10:21:31.155Z,82.74
2019-03-09T10:22:31.153Z,80.67
2019-03-09T10:23:31.132Z,82.78
2019-03-09T10:24:31.124Z,80.00
2019-03-09T10:25:31.121Z,79.91
2019-03-09T10:26:31.127Z,81.63
2019-03-09T10:27:31.132Z,80.96
2019-03-09T10:28:31.111Z,79.24
2019-03-09T10:29:31.117Z,80.29
2019-03-09T10:30:31.116Z,81.92
2019-03-09T10:31:31.105Z,81.05
2019-03-09T10:32:31.111Z,81.73
2019-03-09T10:33:31.100Z,79.37
2019-03-09T10:34:31.099Z,78.70
2019-03-09T10:35:31.093Z,78.61
2019-03-09T10:36:31.084Z,76.79
2019-03-09T10:37:31.072Z,77.08
2019-03-09T10:38:31.076Z,77.26
2019-03-09T10:39:31.069Z,76.40
2019-03-09T10:40:31.126Z,77.08
2019-03-09T10:41:31.073Z,77.59
2019-03-09T10:42:31.059Z,77.50
2019-03-09T10:43:31.061Z,78.45
2019-03-09T10:44:31.058Z,77.59
2019-03-09T10:45:31.053Z,76.25
2019-03-09T10:46:31.044Z,74.24
2019-03-09T10:47:31.045Z,73.95
2019-03-09T10:48:31.062Z,72.90
2019-03-09T10:49:31.073Z,72.29
2019-03-09T10:50:31.045Z,71.71
2019-03-09T10:51:31.038Z,72.48
2019-03-09T10:52:31.030Z,72.29
2019-03-09T10:53:31.037Z,72.00
2019-03-09T10:54:35.903Z,72.38
2019-03-09T10:55:31.025Z,72.19
2019-03-09T10:56:31.023Z,72.19
2019-03-09T10:57:31.022Z,72.38
2019-03-09T10:58:31.024Z,72.38
2019-03-09T10:59:31.008Z,72.38
2019-03-09T11:00:31.006Z,72.58
2019-03-09T11:01:31.024Z,72.19
2019-03-09T11:02:30.995Z,72.09
2019-03-09T11:03:31.033Z,71.81
2019-03-09T11:04:31.010Z,70.95
2019-03-09T11:05:31.019Z,71.33
2019-03-09T11:06:31.015Z,70.89
2019-03-09T11:07:30.988Z,70.98
2019-03-09T11:08:30.998Z,70.98
2019-03-09T11:09:30.983Z,70.98
2019-03-09T11:10:30.981Z,71.08
2019-03-09T11:11:30.978Z,80.85
2019-03-09T11:12:30.973Z,74.52
2019-03-09T11:13:30.997Z,74.57
2019-03-09T11:14:30.967Z,83.29
2019-03-09T11:15:30.968Z,82.08
2019-03-09T11:16:30.969Z,76.14
2019-03-09T11:17:30.968Z,73.35
2019-03-09T11:18:30.961Z,70.61
2019-03-09T11:19:30.994Z,68.79
2019-03-09T11:20:30.948Z,69.62
2019-03-09T11:21:30.961Z,68.27
2019-03-09T11:22:30.959Z,69.33
2019-03-09T11:23:31.085Z,68.85
2019-03-09T11:24:30.967Z,69.29
2019-03-09T11:25:30.943Z,68.72
2019-03-09T11:26:30.954Z,68.24
2019-03-09T11:27:30.934Z,67.47
2019-03-09T11:28:30.927Z,67.95
2019-03-09T11:29:30.954Z,67.57
2019-03-09T11:30:30.920Z,68.01
2019-03-09T11:31:30.945Z,67.54
2019-03-09T11:32:30.953Z,68.40
2019-03-09T11:33:30.927Z,67.82
2019-03-09T11:34:30.916Z,68.01
2019-03-09T11:35:32.800Z,67.91
2019-03-09T11:36:30.955Z,67.91
2019-03-09T11:37:30.910Z,67.82
2019-03-09T11:38:30.908Z,67.82
2019-03-09T11:39:30.921Z,67.82
2019-03-09T11:40:30.901Z,68.68
2019-03-09T11:41:30.897Z,68.01
2019-03-09T11:42:30.936Z,68.97
2019-03-09T11:43:30.907Z,68.40
2019-03-09T11:44:30.892Z,68.78
2019-03-09T11:45:30.949Z,68.68
2019-03-09T11:46:30.899Z,68.97
2019-03-09T11:47:30.881Z,68.30
2019-03-09T11:48:30.893Z,68.11
2019-03-09T11:49:30.915Z,68.21
2019-03-09T11:50:30.874Z,68.30
2019-03-09T11:51:30.886Z,68.30
2019-03-09T11:52:30.920Z,68.87
2019-03-09T11:53:30.882Z,68.81
2019-03-09T11:54:30.874Z,68.68
2019-03-09T11:55:30.865Z,68.11
2019-03-09T11:56:30.873Z,68.21
2019-03-09T11:57:30.885Z,68.68
2019-03-09T11:58:30.859Z,68.59
2019-03-09T11:59:30.874Z,68.68
2019-03-09T12:00:30.851Z,68.87
2019-03-09T12:01:30.847Z,68.87
2019-03-09T12:02:38.542Z,69.26
2019-03-09T12:03:30.855Z,68.97
2019-03-09T12:04:30.842Z,67.82
2019-03-09T12:05:30.877Z,67.91
2019-03-09T12:06:30.844Z,67.54
2019-03-09T12:07:30.830Z,67.82
2019-03-09T12:08:30.834Z,67.82
2019-03-09T12:09:30.861Z,67.44
2019-03-09T12:10:30.825Z,68.11
2019-03-09T12:11:30.816Z,68.78
2019-03-09T12:12:30.840Z,68.49
2019-03-09T12:13:30.822Z,68.87
2019-03-09T12:14:30.808Z,68.49
2019-03-09T12:15:30.848Z,68.78
2019-03-09T12:16:30.816Z,68.78
2019-03-09T12:17:30.811Z,69.45
2019-03-09T12:18:30.800Z,69.35
2019-03-09T12:19:30.824Z,69.45
2019-03-09T12:20:30.792Z,69.54
2019-03-09T12:21:30.819Z,68.97
2019-03-09T12:22:30.816Z,69.35
2019-03-09T12:23:30.786Z,69.07
2019-03-09T12:24:30.777Z,67.82
2019-03-09T12:25:30.823Z,67.44
2019-03-09T12:26:30.779Z,67.91
2019-03-09T12:27:30.773Z,67.15
2019-03-09T12:28:30.782Z,67.15
2019-03-09T12:29:30.798Z,67.63
2019-03-09T12:30:30.765Z,68.01
2019-03-09T12:31:30.775Z,68.59
2019-03-09T12:32:30.776Z,68.40
2019-03-09T12:33:30.755Z,68.01
2019-03-09T12:34:30.750Z,68.21
2019-03-09T12:35:30.784Z,68.68
2019-03-09T12:36:30.760Z,68.84
2019-03-09T12:37:30.735Z,69.26
2019-03-09T12:38:30.733Z,69.35
2019-03-09T12:39:30.767Z,70.21
2019-03-09T12:40:30.729Z,69.35
2019-03-09T12:41:30.729Z,69.35
2019-03-09T12:42:30.750Z,69.45
2019-03-09T12:43:30.742Z,69.07
2019-03-09T12:44:30.706Z,68.49
2019-03-09T12:45:30.740Z,68.21
2019-03-09T12:46:30.725Z,67.82
2019-03-09T12:47:30.702Z,68.01
2019-03-09T12:48:30.707Z,68.21
2019-03-09T12:49:30.736Z,68.30
2019-03-09T12:50:30.705Z,68.59
2019-03-09T12:51:30.708Z,68.30
2019-03-09T12:52:30.720Z,67.82